sensor_id;sensor_type;location;lat;lon;timestamp;pressure;altitude;pressure_sealevel;temperature;humidity
71915;BME280;60387;49.994;14.660;2024-03-17T00:01:58;98304.81;;;8.60;51.14
71915;BME280;60387;49.994;14.660;2024-03-17T00:04:31;98308.59;;;8.59;51.22
71915;BME280;60387;49.994;14.660;2024-03-17T00:07:04;98305.38;;;8.57;51.31
71915;BME280;60387;49.994;14.660;2024-03-17T00:09:38;98297.53;;;8.55;51.04
71915;BME280;60387;49.994;14.660;2024-03-17T00:12:12;98297.25;;;8.52;50.84
71915;BME280;60387;49.994;14.660;2024-03-17T00:14:45;98308.88;;;8.52;50.99
71915;BME280;60387;49.994;14.660;2024-03-17T00:17:18;98302.97;;;8.50;51.16
71915;BME280;60387;49.994;14.660;2024-03-17T00:19:54;98301.34;;;8.49;50.81
71915;BME280;60387;49.994;14.660;2024-03-17T00:22:28;98302.69;;;8.47;51.19
71915;BME280;60387;49.994;14.660;2024-03-17T00:25:01;98299.47;;;8.45;50.91
71915;BME280;60387;49.994;14.660;2024-03-17T00:27:35;98307.56;;;8.45;51.29
71915;BME280;60387;49.994;14.660;2024-03-17T00:30:08;98315.09;;;8.43;51.26
71915;BME280;60387;49.994;14.660;2024-03-17T00:32:42;98312.13;;;8.39;50.94
71915;BME280;60387;49.994;14.660;2024-03-17T00:35:15;98309.19;;;8.36;50.89
71915;BME280;60387;49.994;14.660;2024-03-17T00:37:48;98311.06;;;8.30;50.98
71915;BME280;60387;49.994;14.660;2024-03-17T00:40:22;98310.84;;;8.27;50.80
71915;BME280;60387;49.994;14.660;2024-03-17T00:42:55;98311.66;;;8.22;51.25
71915;BME280;60387;49.994;14.660;2024-03-17T00:45:28;98311.59;;;8.17;50.83
71915;BME280;60387;49.994;14.660;2024-03-17T00:48:02;98305.13;;;8.13;51.23
71915;BME280;60387;49.994;14.660;2024-03-17T00:50:35;98307.31;;;8.06;51.03
71915;BME280;60387;49.994;14.660;2024-03-17T00:53:08;98307.03;;;8.03;51.26
71915;BME280;60387;49.994;14.660;2024-03-17T00:55:42;98304.06;;;7.99;51.30
71915;BME280;60387;49.994;14.660;2024-03-17T00:58:15;98307.56;;;7.95;51.34
71915;BME280;60387;49.994;14.660;2024-03-17T01:00:48;98306.22;;;7.87;50.93
71915;BME280;60387;49.994;14.660;2024-03-17T01:03:22;98305.94;;;7.84;51.26
71915;BME280;60387;49.994;14.660;2024-03-17T01:05:55;98311.09;;;7.80;51.52
71915;BME280;60387;49.994;14.660;2024-03-17T01:08:28;98306.75;;;7.74;51.19
71915;BME280;60387;49.994;14.660;2024-03-17T01:11:01;98307.31;;;7.71;51.49
71915;BME280;60387;49.994;14.660;2024-03-17T01:13:35;98303.78;;;7.66;51.22
71915;BME280;60387;49.994;14.660;2024-03-17T01:16:08;98304.56;;;7.61;51.57
71915;BME280;60387;49.994;14.660;2024-03-17T01:18:42;98293.00;;;7.51;51.49
71915;BME280;60387;49.994;14.660;2024-03-17T01:21:15;98314.25;;;7.52;51.81
71915;BME280;60387;49.994;14.660;2024-03-17T01:23:48;98312.66;;;7.46;51.58
71915;BME280;60387;49.994;14.660;2024-03-17T01:26:21;98314.00;;;7.44;51.52
71915;BME280;60387;49.994;14.660;2024-03-17T01:28:55;98311.03;;;7.40;51.61
71915;BME280;60387;49.994;14.660;2024-03-17T01:31:28;98322.88;;;7.39;51.75
71915;BME280;60387;49.994;14.660;2024-03-17T01:34:01;98313.69;;;7.35;51.87
71915;BME280;60387;49.994;14.660;2024-03-17T01:36:34;98318.53;;;7.33;51.51
71915;BME280;60387;49.994;14.660;2024-03-17T01:39:08;98304.00;;;7.29;51.67
71915;BME280;60387;49.994;14.660;2024-03-17T01:41:41;98315.28;;;7.26;51.76
71915;BME280;60387;49.994;14.660;2024-03-17T01:44:27;98312.59;;;7.26;51.63
71915;BME280;60387;49.994;14.660;2024-03-17T01:47:00;98302.63;;;7.22;51.51
71915;BME280;60387;49.994;14.660;2024-03-17T01:49:33;98309.34;;;7.19;51.55
71915;BME280;60387;49.994;14.660;2024-03-17T01:52:07;98300.44;;;7.14;51.80
71915;BME280;60387;49.994;14.660;2024-03-17T01:54:42;98298.53;;;7.09;51.60
71915;BME280;60387;49.994;14.660;2024-03-17T01:57:16;98305.53;;;7.05;51.85
71915;BME280;60387;49.994;14.660;2024-03-17T01:59:49;98304.16;;;7.03;51.77
71915;BME280;60387;49.994;14.660;2024-03-17T02:02:22;98315.47;;;7.00;51.87
71915;BME280;60387;49.994;14.660;2024-03-17T02:04:56;98309.81;;;6.96;51.77
71915;BME280;60387;49.994;14.660;2024-03-17T02:07:29;98314.66;;;6.94;51.66
71915;BME280;60387;49.994;14.660;2024-03-17T02:10:03;98310.84;;;6.90;52.23
71915;BME280;60387;49.994;14.660;2024-03-17T02:12:36;98301.94;;;6.85;51.94
71915;BME280;60387;49.994;14.660;2024-03-17T02:15:09;98313.00;;;6.88;52.95
71915;BME280;60387;49.994;14.660;2024-03-17T02:17:43;98310.28;;;6.83;53.33
71915;BME280;60387;49.994;14.660;2024-03-17T02:20:16;98312.97;;;6.78;52.89
71915;BME280;60387;49.994;14.660;2024-03-17T02:22:50;98308.09;;;6.75;52.45
71915;BME280;60387;49.994;14.660;2024-03-17T02:25:26;98305.09;;;6.72;52.22
71915;BME280;60387;49.994;14.660;2024-03-17T02:27:59;98309.94;;;6.70;52.00
71915;BME280;60387;49.994;14.660;2024-03-17T02:30:33;98311.28;;;6.67;52.55
71915;BME280;60387;49.994;14.660;2024-03-17T02:33:06;98306.44;;;6.64;52.37
71915;BME280;60387;49.994;14.660;2024-03-17T02:35:40;98317.44;;;6.63;52.11
71915;BME280;60387;49.994;14.660;2024-03-17T02:38:15;98306.97;;;6.61;52.11
71915;BME280;60387;49.994;14.660;2024-03-17T02:40:49;98308.03;;;6.60;52.19
71915;BME280;60387;49.994;14.660;2024-03-17T02:43:22;98320.66;;;6.60;52.43
71915;BME280;60387;49.994;14.660;2024-03-17T02:45:55;98312.00;;;6.53;52.28
71915;BME280;60387;49.994;14.660;2024-03-17T02:48:28;98316.88;;;6.56;52.10
71915;BME280;60387;49.994;14.660;2024-03-17T02:51:02;98318.22;;;6.53;52.24
71915;BME280;60387;49.994;14.660;2024-03-17T02:53:35;98317.66;;;6.51;52.29
71915;BME280;60387;49.994;14.660;2024-03-17T02:56:09;98309.81;;;6.45;52.73
71915;BME280;60387;49.994;14.660;2024-03-17T02:58:44;98317.09;;;6.44;53.29
71915;BME280;60387;49.994;14.660;2024-03-17T03:01:17;98309.53;;;6.41;52.88
71915;BME280;60387;49.994;14.660;2024-03-17T03:03:51;98298.75;;;6.36;52.65
71915;BME280;60387;49.994;14.660;2024-03-17T03:06:24;98309.75;;;6.35;52.96
71915;BME280;60387;49.994;14.660;2024-03-17T03:08:57;98309.22;;;6.33;53.44
71915;BME280;60387;49.994;14.660;2024-03-17T03:11:30;98301.38;;;6.27;54.29
71915;BME280;60387;49.994;14.660;2024-03-17T03:14:04;98307.31;;;6.28;53.94
71915;BME280;60387;49.994;14.660;2024-03-17T03:16:37;98310.25;;;6.27;53.49
71915;BME280;60387;49.994;14.660;2024-03-17T03:19:10;98309.44;;;6.27;53.47
71915;BME280;60387;49.994;14.660;2024-03-17T03:21:43;98298.13;;;6.24;53.34
71915;BME280;60387;49.994;14.660;2024-03-17T03:24:17;98300.50;;;6.21;52.83
71915;BME280;60387;49.994;14.660;2024-03-17T03:26:50;98299.72;;;6.21;53.18
71915;BME280;60387;49.994;14.660;2024-03-17T03:29:23;98308.84;;;6.20;52.84
71915;BME280;60387;49.994;14.660;2024-03-17T03:31:57;98304.81;;;6.17;52.73
71915;BME280;60387;49.994;14.660;2024-03-17T03:34:30;98300.75;;;6.15;52.76
71915;BME280;60387;49.994;14.660;2024-03-17T03:37:03;98304.75;;;6.12;52.75
71915;BME280;60387;49.994;14.660;2024-03-17T03:39:36;98301.28;;;6.12;53.18
71915;BME280;60387;49.994;14.660;2024-03-17T03:42:10;98306.34;;;6.08;52.78
71915;BME280;60387;49.994;14.660;2024-03-17T03:44:46;98303.91;;;6.07;52.97
71915;BME280;60387;49.994;14.660;2024-03-17T03:47:19;98308.75;;;6.05;53.22
71915;BME280;60387;49.994;14.660;2024-03-17T03:49:52;98309.53;;;6.00;52.88
71915;BME280;60387;49.994;14.660;2024-03-17T03:52:25;98302.78;;;5.98;52.93
71915;BME280;60387;49.994;14.660;2024-03-17T03:54:59;98299.78;;;5.94;53.17
71915;BME280;60387;49.994;14.660;2024-03-17T03:57:32;98304.88;;;5.91;52.92
71915;BME280;60387;49.994;14.660;2024-03-17T04:00:06;98305.38;;;5.88;52.98
71915;BME280;60387;49.994;14.660;2024-03-17T04:02:40;98305.91;;;5.85;53.31
71915;BME280;60387;49.994;14.660;2024-03-17T04:05:13;98304.25;;;5.84;53.91
71915;BME280;60387;49.994;14.660;2024-03-17T04:07:47;98297.72;;;5.75;54.69
71915;BME280;60387;49.994;14.660;2024-03-17T04:10:20;98304.16;;;5.74;54.60
71915;BME280;60387;49.994;14.660;2024-03-17T04:12:54;98295.50;;;5.67;55.71
71915;BME280;60387;49.994;14.660;2024-03-17T04:15:27;98303.28;;;5.63;55.32
71915;BME280;60387;49.994;14.660;2024-03-17T04:18:00;98300.59;;;5.63;55.12
71915;BME280;60387;49.994;14.660;2024-03-17T04:20:33;98304.31;;;5.62;54.50
71915;BME280;60387;49.994;14.660;2024-03-17T04:23:08;98296.53;;;5.61;54.23
71915;BME280;60387;49.994;14.660;2024-03-17T04:25:41;98315.06;;;5.62;54.17
71915;BME280;60387;49.994;14.660;2024-03-17T04:28:15;98307.78;;;5.58;56.30
71915;BME280;60387;49.994;14.660;2024-03-17T04:30:48;98315.59;;;5.59;55.41
71915;BME280;60387;49.994;14.660;2024-03-17T04:33:22;98310.72;;;5.56;55.04
71915;BME280;60387;49.994;14.660;2024-03-17T04:35:55;98307.75;;;5.53;56.74
71915;BME280;60387;49.994;14.660;2024-03-17T04:38:28;98313.63;;;5.50;55.88
71915;BME280;60387;49.994;14.660;2024-03-17T04:41:01;98315.25;;;5.51;55.30
71915;BME280;60387;49.994;14.660;2024-03-17T04:43:35;98314.66;;;5.49;55.61
71915;BME280;60387;49.994;14.660;2024-03-17T04:46:08;98317.88;;;5.46;55.43
71915;BME280;60387;49.994;14.660;2024-03-17T04:48:41;98318.94;;;5.45;55.26
71915;BME280;60387;49.994;14.660;2024-03-17T04:51:16;98319.75;;;5.45;56.10
71915;BME280;60387;49.994;14.660;2024-03-17T04:53:49;98317.31;;;5.44;56.08
71915;BME280;60387;49.994;14.660;2024-03-17T04:56:22;98315.19;;;5.46;55.90
71915;BME280;60387;49.994;14.660;2024-03-17T04:58:55;98326.19;;;5.44;55.76
71915;BME280;60387;49.994;14.660;2024-03-17T05:01:29;98317.88;;;5.46;55.46
71915;BME280;60387;49.994;14.660;2024-03-17T05:04:02;98320.56;;;5.46;54.98
71915;BME280;60387;49.994;14.660;2024-03-17T05:06:36;98315.13;;;5.41;54.96
71915;BME280;60387;49.994;14.660;2024-03-17T05:09:09;98313.19;;;5.36;55.80
71915;BME280;60387;49.994;14.660;2024-03-17T05:11:43;98316.72;;;5.37;55.06
71915;BME280;60387;49.994;14.660;2024-03-17T05:14:16;98327.69;;;5.35;55.17
71915;BME280;60387;49.994;14.660;2024-03-17T05:16:50;98334.13;;;5.34;55.21
71915;BME280;60387;49.994;14.660;2024-03-17T05:19:23;98336.03;;;5.34;55.26
71915;BME280;60387;49.994;14.660;2024-03-17T05:21:57;98332.75;;;5.32;54.45
71915;BME280;60387;49.994;14.660;2024-03-17T05:24:30;98336.03;;;5.34;55.21
71915;BME280;60387;49.994;14.660;2024-03-17T05:27:03;98341.41;;;5.34;55.25
71915;BME280;60387;49.994;14.660;2024-03-17T05:29:37;98337.09;;;5.33;55.25
71915;BME280;60387;49.994;14.660;2024-03-17T05:32:10;98338.75;;;5.39;55.29
71915;BME280;60387;49.994;14.660;2024-03-17T05:34:43;98346.91;;;5.49;55.24
71915;BME280;60387;49.994;14.660;2024-03-17T05:37:16;98350.81;;;5.63;54.97
71915;BME280;60387;49.994;14.660;2024-03-17T05:39:50;98347.28;;;5.84;54.95
71915;BME280;60387;49.994;14.660;2024-03-17T05:42:23;98347.84;;;6.17;54.48
71915;BME280;60387;49.994;14.660;2024-03-17T05:44:56;98352.31;;;6.43;54.71
71915;BME280;60387;49.994;14.660;2024-03-17T05:47:29;98347.81;;;6.53;54.27
71915;BME280;60387;49.994;14.660;2024-03-17T05:50:03;98359.22;;;6.70;54.15
71915;BME280;60387;49.994;14.660;2024-03-17T05:52:36;98365.47;;;6.81;54.22
71915;BME280;60387;49.994;14.660;2024-03-17T05:55:10;98367.94;;;6.92;53.82
71915;BME280;60387;49.994;14.660;2024-03-17T05:57:43;98365.59;;;7.06;53.68
71915;BME280;60387;49.994;14.660;2024-03-17T06:00:17;98365.41;;;7.22;54.00
71915;BME280;60387;49.994;14.660;2024-03-17T06:02:50;98359.00;;;7.38;54.05
71915;BME280;60387;49.994;14.660;2024-03-17T06:05:23;98362.81;;;7.57;54.09
71915;BME280;60387;49.994;14.660;2024-03-17T06:07:56;98374.16;;;7.79;53.89
71915;BME280;60387;49.994;14.660;2024-03-17T06:10:31;98364.47;;;8.03;53.42
71915;BME280;60387;49.994;14.660;2024-03-17T06:13:04;98361.81;;;8.28;53.29
71915;BME280;60387;49.994;14.660;2024-03-17T06:15:40;98376.38;;;8.52;53.25
71915;BME280;60387;49.994;14.660;2024-03-17T06:18:14;98366.38;;;8.78;53.28
71915;BME280;60387;49.994;14.660;2024-03-17T06:20:47;98372.50;;;9.03;52.94
71915;BME280;60387;49.994;14.660;2024-03-17T06:23:21;98381.03;;;9.30;53.11
71915;BME280;60387;49.994;14.660;2024-03-17T06:25:54;98382.00;;;9.54;52.58
71915;BME280;60387;49.994;14.660;2024-03-17T06:28:27;98388.63;;;9.76;52.53
71915;BME280;60387;49.994;14.660;2024-03-17T06:31:01;98389.84;;;9.99;51.93
71915;BME280;60387;49.994;14.660;2024-03-17T06:33:34;98392.72;;;10.22;52.12
71915;BME280;60387;49.994;14.660;2024-03-17T06:36:07;98393.06;;;10.44;51.41
71915;BME280;60387;49.994;14.660;2024-03-17T06:38:41;98398.06;;;10.61;51.29
71915;BME280;60387;49.994;14.660;2024-03-17T06:41:14;98405.50;;;10.79;51.18
71915;BME280;60387;49.994;14.660;2024-03-17T06:43:47;98401.47;;;11.00;51.16
71915;BME280;60387;49.994;14.660;2024-03-17T06:46:20;98400.16;;;11.21;50.92
71915;BME280;60387;49.994;14.660;2024-03-17T06:48:54;98405.28;;;11.46;50.98
71915;BME280;60387;49.994;14.660;2024-03-17T06:51:27;98396.03;;;11.70;50.67
71915;BME280;60387;49.994;14.660;2024-03-17T06:54:00;98399.22;;;11.96;50.91
71915;BME280;60387;49.994;14.660;2024-03-17T06:56:34;98411.84;;;12.24;50.49
71915;BME280;60387;49.994;14.660;2024-03-17T06:59:07;98407.63;;;12.50;50.33
71915;BME280;60387;49.994;14.660;2024-03-17T07:01:40;98413.94;;;12.77;49.98
71915;BME280;60387;49.994;14.660;2024-03-17T07:04:13;98415.94;;;13.03;49.61
71915;BME280;60387;49.994;14.660;2024-03-17T07:06:47;98414.97;;;13.26;48.10
71915;BME280;60387;49.994;14.660;2024-03-17T07:09:20;98419.03;;;13.42;47.10
71915;BME280;60387;49.994;14.660;2024-03-17T07:11:53;98418.19;;;13.55;48.09
71915;BME280;60387;49.994;14.660;2024-03-17T07:14:26;98411.81;;;13.73;47.92
71915;BME280;60387;49.994;14.660;2024-03-17T07:17:00;98426.63;;;13.94;46.95
71915;BME280;60387;49.994;14.660;2024-03-17T07:19:33;98421.66;;;14.10;45.49
71915;BME280;60387;49.994;14.660;2024-03-17T07:22:06;98417.94;;;14.19;46.22
71915;BME280;60387;49.994;14.660;2024-03-17T07:24:39;98431.00;;;14.31;46.34
71915;BME280;60387;49.994;14.660;2024-03-17T07:27:13;98428.06;;;14.41;43.43
71915;BME280;60387;49.994;14.660;2024-03-17T07:29:46;98435.19;;;14.50;44.03
71915;BME280;60387;49.994;14.660;2024-03-17T07:32:19;98427.06;;;14.59;44.73
71915;BME280;60387;49.994;14.660;2024-03-17T07:34:53;98437.28;;;14.75;43.18
71915;BME280;60387;49.994;14.660;2024-03-17T07:37:26;98437.19;;;14.80;41.21
71915;BME280;60387;49.994;14.660;2024-03-17T07:39:59;98431.47;;;14.68;43.49
71915;BME280;60387;49.994;14.660;2024-03-17T07:42:33;98434.88;;;14.74;42.20
71915;BME280;60387;49.994;14.660;2024-03-17T07:45:06;98439.47;;;14.87;43.73
71915;BME280;60387;49.994;14.660;2024-03-17T07:47:39;98430.63;;;15.12;44.58
71915;BME280;60387;49.994;14.660;2024-03-17T07:50:13;98431.78;;;15.41;44.16
71915;BME280;60387;49.994;14.660;2024-03-17T07:52:46;98424.16;;;15.69;43.35
71915;BME280;60387;49.994;14.660;2024-03-17T07:55:19;98429.53;;;15.99;43.75
71915;BME280;60387;49.994;14.660;2024-03-17T07:57:52;98422.97;;;16.17;41.64
71915;BME280;60387;49.994;14.660;2024-03-17T08:00:26;98417.03;;;16.32;41.51
71915;BME280;60387;49.994;14.660;2024-03-17T08:02:59;98429.28;;;16.51;41.43
71915;BME280;60387;49.994;14.660;2024-03-17T08:05:32;98427.53;;;16.72;42.65
71915;BME280;60387;49.994;14.660;2024-03-17T08:08:06;98432.63;;;16.99;41.45
71915;BME280;60387;49.994;14.660;2024-03-17T08:10:42;98432.13;;;17.14;38.67
71915;BME280;60387;49.994;14.660;2024-03-17T08:13:16;98429.06;;;17.07;37.09
71915;BME280;60387;49.994;14.660;2024-03-17T08:15:57;98432.31;;;16.92;37.50
71915;BME280;60387;49.994;14.660;2024-03-17T08:18:33;98434.88;;;16.89;39.81
71915;BME280;60387;49.994;14.660;2024-03-17T08:21:07;98432.31;;;17.01;39.57
71915;BME280;60387;49.994;14.660;2024-03-17T08:23:40;98428.88;;;17.21;40.03
71915;BME280;60387;49.994;14.660;2024-03-17T08:26:13;98428.16;;;17.49;39.34
71915;BME280;60387;49.994;14.660;2024-03-17T08:28:46;98431.53;;;17.84;38.37
71915;BME280;60387;49.994;14.660;2024-03-17T08:31:20;98424.94;;;18.05;36.92
71915;BME280;60387;49.994;14.660;2024-03-17T08:33:53;98424.97;;;18.26;39.08
71915;BME280;60387;49.994;14.660;2024-03-17T08:36:26;98419.66;;;18.50;38.70
71915;BME280;60387;49.994;14.660;2024-03-17T08:38:59;98427.34;;;18.77;37.75
71915;BME280;60387;49.994;14.660;2024-03-17T08:41:33;98425.25;;;18.94;36.25
71915;BME280;60387;49.994;14.660;2024-03-17T08:44:06;98426.38;;;18.93;34.92
71915;BME280;60387;49.994;14.660;2024-03-17T08:46:39;98423.44;;;18.78;35.70
71915;BME280;60387;49.994;14.660;2024-03-17T08:49:13;98423.44;;;18.78;36.57
71915;BME280;60387;49.994;14.660;2024-03-17T08:51:46;98427.13;;;18.82;35.37
71915;BME280;60387;49.994;14.660;2024-03-17T08:54:19;98427.63;;;18.96;36.42
71915;BME280;60387;49.994;14.660;2024-03-17T08:56:52;98416.25;;;19.18;36.79
71915;BME280;60387;49.994;14.660;2024-03-17T08:59:26;98418.66;;;19.52;34.36
71915;BME280;60387;49.994;14.660;2024-03-17T09:01:59;98424.84;;;19.84;35.46
71915;BME280;60387;49.994;14.660;2024-03-17T09:04:32;98413.16;;;19.99;33.94
71915;BME280;60387;49.994;14.660;2024-03-17T09:07:05;98408.56;;;20.03;33.04
71915;BME280;60387;49.994;14.660;2024-03-17T09:09:39;98407.44;;;20.16;33.82
71915;BME280;60387;49.994;14.660;2024-03-17T09:12:12;98403.13;;;20.43;35.04
71915;BME280;60387;49.994;14.660;2024-03-17T09:14:47;98391.25;;;20.66;33.51
71915;BME280;60387;49.994;14.660;2024-03-17T09:17:20;98395.41;;;20.60;31.51
71915;BME280;60387;49.994;14.660;2024-03-17T09:19:54;98393.53;;;20.25;30.53
71915;BME280;60387;49.994;14.660;2024-03-17T09:22:27;98394.59;;;19.84;31.94
71915;BME280;60387;49.994;14.660;2024-03-17T09:25:00;98394.72;;;19.64;33.43
71915;BME280;60387;49.994;14.660;2024-03-17T09:27:34;98394.50;;;19.69;34.56
71915;BME280;60387;49.994;14.660;2024-03-17T09:30:08;98390.59;;;19.94;33.63
71915;BME280;60387;49.994;14.660;2024-03-17T09:32:41;98381.94;;;20.31;33.30
71915;BME280;60387;49.994;14.660;2024-03-17T09:35:15;98385.53;;;20.59;29.87
71915;BME280;60387;49.994;14.660;2024-03-17T09:37:48;98381.44;;;20.53;30.72
71915;BME280;60387;49.994;14.660;2024-03-17T09:40:21;98384.50;;;20.24;30.69
71915;BME280;60387;49.994;14.660;2024-03-17T09:42:55;98387.28;;;19.77;29.21
71915;BME280;60387;49.994;14.660;2024-03-17T09:45:30;98386.78;;;19.27;31.55
71915;BME280;60387;49.994;14.660;2024-03-17T09:48:04;98384.84;;;18.95;33.00
71915;BME280;60387;49.994;14.660;2024-03-17T09:50:37;98381.81;;;18.76;32.75
71915;BME280;60387;49.994;14.660;2024-03-17T09:53:16;98381.06;;;18.55;33.19
71915;BME280;60387;49.994;14.660;2024-03-17T09:55:50;98381.47;;;18.45;33.60
71915;BME280;60387;49.994;14.660;2024-03-17T09:58:24;98371.16;;;18.42;33.04
71915;BME280;60387;49.994;14.660;2024-03-17T10:00:57;98366.41;;;18.30;33.03
71915;BME280;60387;49.994;14.660;2024-03-17T10:03:43;98374.75;;;18.13;31.53
71915;BME280;60387;49.994;14.660;2024-03-17T10:06:20;98373.47;;;17.90;33.58
71915;BME280;60387;49.994;14.660;2024-03-17T10:11:35;98362.47;;;17.70;33.13
71915;BME280;60387;49.994;14.660;2024-03-17T10:14:09;98367.50;;;17.59;32.51
71915;BME280;60387;49.994;14.660;2024-03-17T10:16:43;98367.38;;;17.56;34.61
71915;BME280;60387;49.994;14.660;2024-03-17T10:19:23;98363.97;;;17.59;35.69
71915;BME280;60387;49.994;14.660;2024-03-17T10:22:00;98356.16;;;17.69;35.20
71915;BME280;60387;49.994;14.660;2024-03-17T10:24:34;98355.78;;;17.79;34.70
71915;BME280;60387;49.994;14.660;2024-03-17T10:27:10;98355.03;;;17.99;36.20
71915;BME280;60387;49.994;14.660;2024-03-17T10:29:44;98368.75;;;18.20;36.08
71915;BME280;60387;49.994;14.660;2024-03-17T10:32:17;98354.44;;;18.35;34.75
71915;BME280;60387;49.994;14.660;2024-03-17T10:34:52;98359.03;;;18.43;33.93
71915;BME280;60387;49.994;14.660;2024-03-17T10:37:25;98356.56;;;18.50;32.69
71915;BME280;60387;49.994;14.660;2024-03-17T10:39:59;98362.19;;;18.53;33.72
71915;BME280;60387;49.994;14.660;2024-03-17T10:42:34;98353.41;;;18.60;33.77
71915;BME280;60387;49.994;14.660;2024-03-17T10:45:08;98353.41;;;18.60;33.29
71915;BME280;60387;49.994;14.660;2024-03-17T10:47:48;98352.91;;;18.46;31.21
71915;BME280;60387;49.994;14.660;2024-03-17T10:50:23;98355.69;;;18.17;29.30
71915;BME280;60387;49.994;14.660;2024-03-17T10:53:01;98351.78;;;17.77;30.28
71915;BME280;60387;49.994;14.660;2024-03-17T10:55:45;98345.00;;;17.54;31.72
71915;BME280;60387;49.994;14.660;2024-03-17T10:58:44;98353.00;;;17.59;31.95
71915;BME280;60387;49.994;14.660;2024-03-17T11:01:17;98349.63;;;17.62;32.75
71915;BME280;60387;49.994;14.660;2024-03-17T11:03:53;98340.25;;;17.63;32.81
71915;BME280;60387;49.994;14.660;2024-03-17T11:06:27;98348.47;;;17.63;32.64
71915;BME280;60387;49.994;14.660;2024-03-17T11:09:00;98344.13;;;17.62;32.75
71915;BME280;60387;49.994;14.660;2024-03-17T11:11:37;98347.66;;;17.62;32.99
71915;BME280;60387;49.994;14.660;2024-03-17T11:14:19;98339.66;;;17.57;31.97
71915;BME280;60387;49.994;14.660;2024-03-17T11:16:52;98335.63;;;17.55;32.24
71915;BME280;60387;49.994;14.660;2024-03-17T11:19:26;98339.38;;;17.50;32.06
71915;BME280;60387;49.994;14.660;2024-03-17T11:28:00;98335.06;;;17.41;32.59
71915;BME280;60387;49.994;14.660;2024-03-17T11:39:16;98314.56;;;17.47;31.43
71915;BME280;60387;49.994;14.660;2024-03-17T11:41:50;98325.91;;;17.37;32.01
71915;BME280;60387;49.994;14.660;2024-03-17T11:46:58;98314.03;;;17.16;32.95
71915;BME280;60387;49.994;14.660;2024-03-17T11:49:41;98318.69;;;17.24;33.42
71915;BME280;60387;49.994;14.660;2024-03-17T11:52:15;98313.50;;;17.31;33.12
71915;BME280;60387;49.994;14.660;2024-03-17T11:54:49;98308.47;;;17.33;33.80
71915;BME280;60387;49.994;14.660;2024-03-17T11:57:24;98299.44;;;17.41;33.77
71915;BME280;60387;49.994;14.660;2024-03-17T11:59:58;98290.09;;;17.71;33.00
71915;BME280;60387;49.994;14.660;2024-03-17T12:02:31;98298.63;;;17.90;30.79
71915;BME280;60387;49.994;14.660;2024-03-17T12:05:05;98297.16;;;18.13;31.88
71915;BME280;60387;49.994;14.660;2024-03-17T12:07:42;98286.94;;;18.42;31.31
71915;BME280;60387;49.994;14.660;2024-03-17T12:10:16;98290.47;;;18.87;31.58
71915;BME280;60387;49.994;14.660;2024-03-17T12:12:49;98287.66;;;19.32;31.78
71915;BME280;60387;49.994;14.660;2024-03-17T12:15:22;98281.75;;;19.81;31.06
71915;BME280;60387;49.994;14.660;2024-03-17T12:17:56;98278.81;;;20.13;29.07
71915;BME280;60387;49.994;14.660;2024-03-17T12:20:29;98276.94;;;20.29;29.05
71915;BME280;60387;49.994;14.660;2024-03-17T12:23:02;98269.59;;;20.33;29.24
71915;BME280;60387;49.994;14.660;2024-03-17T12:25:36;98273.53;;;20.20;28.44
71915;BME280;60387;49.994;14.660;2024-03-17T12:28:16;98280.78;;;20.01;28.51
71915;BME280;60387;49.994;14.660;2024-03-17T12:30:50;98279.91;;;19.85;29.09
71915;BME280;60387;49.994;14.660;2024-03-17T12:33:23;98263.66;;;19.80;28.41
71915;BME280;60387;49.994;14.660;2024-03-17T12:35:56;98269.88;;;19.77;28.92
71915;BME280;60387;49.994;14.660;2024-03-17T12:38:30;98264.38;;;19.77;28.22
71915;BME280;60387;49.994;14.660;2024-03-17T12:41:03;98257.94;;;19.73;27.27
71915;BME280;60387;49.994;14.660;2024-03-17T12:43:36;98261.41;;;19.70;28.82
71915;BME280;60387;49.994;14.660;2024-03-17T12:46:12;98252.34;;;19.70;29.81
71915;BME280;60387;49.994;14.660;2024-03-17T12:48:46;98258.66;;;19.58;28.43
71915;BME280;60387;49.994;14.660;2024-03-17T12:51:19;98252.38;;;19.46;27.42
71915;BME280;60387;49.994;14.660;2024-03-17T12:54:12;98249.88;;;19.29;28.01
71915;BME280;60387;49.994;14.660;2024-03-17T12:56:45;98250.47;;;19.22;29.08
71915;BME280;60387;49.994;14.660;2024-03-17T12:59:18;98251.00;;;19.16;28.09
71915;BME280;60387;49.994;14.660;2024-03-17T13:01:51;98251.44;;;18.94;28.73
71915;BME280;60387;49.994;14.660;2024-03-17T13:04:25;98244.38;;;18.81;29.74
71915;BME280;60387;49.994;14.660;2024-03-17T13:07:09;98239.91;;;18.76;30.31
71915;BME280;60387;49.994;14.660;2024-03-17T13:09:42;98233.13;;;18.74;29.49
71915;BME280;60387;49.994;14.660;2024-03-17T13:12:16;98234.34;;;18.52;28.75
71915;BME280;60387;49.994;14.660;2024-03-17T13:14:49;98235.06;;;18.29;28.62
71915;BME280;60387;49.994;14.660;2024-03-17T13:17:22;98227.03;;;18.12;29.35
71915;BME280;60387;49.994;14.660;2024-03-17T13:19:55;98219.19;;;18.02;30.11
71915;BME280;60387;49.994;14.660;2024-03-17T13:22:29;98222.41;;;18.04;30.05
71915;BME280;60387;49.994;14.660;2024-03-17T13:25:02;98216.94;;;18.04;29.85
71915;BME280;60387;49.994;14.660;2024-03-17T13:27:35;98212.47;;;17.99;29.51
71915;BME280;60387;49.994;14.660;2024-03-17T13:30:09;98217.88;;;17.87;28.98
71915;BME280;60387;49.994;14.660;2024-03-17T13:32:42;98216.28;;;17.86;29.90
71915;BME280;60387;49.994;14.660;2024-03-17T13:35:17;98216.66;;;17.97;30.04
71915;BME280;60387;49.994;14.660;2024-03-17T13:37:51;98214.91;;;18.13;29.94
71915;BME280;60387;49.994;14.660;2024-03-17T13:40:24;98206.84;;;18.28;29.44
71915;BME280;60387;49.994;14.660;2024-03-17T13:42:57;98193.06;;;18.37;29.65
71915;BME280;60387;49.994;14.660;2024-03-17T13:45:38;98212.28;;;18.61;29.53
71915;BME280;60387;49.994;14.660;2024-03-17T13:48:11;98194.47;;;18.67;30.11
71915;BME280;60387;49.994;14.660;2024-03-17T13:50:45;98202.59;;;18.63;28.96